Time;durP1;ratioP1;P1;durP2;ratioP2;P2;SDS_P1;SDS_P2;PMS_P1;PMS_P2;Temp;Humidity;BMP_temperature;BMP_pressure;BME280_temperature;BME280_humidity;BME280_pressure;Samples;Min_cycle;Max_cycle;Signal;HPM_P1;HPM_P2
2021/11/12 00:02:10;;;;;;;;;;;4.70;62.80;;;;;;4361421;32;20065;-39
2021/11/12 00:12:38;;;;;;;;;;;4.70;62.90;;;;;;4373067;32;20460;-39
2021/11/12 00:15:05;;;;;;;;;;;4.70;62.80;;;;;;4373217;32;20414;-38
2021/11/12 00:17:33;;;;;;;;;;;4.70;62.80;;;;;;4373343;32;19966;-38
2021/11/12 00:19:59;;;;;;;;;;;4.70;62.80;;;;;;4359539;32;20444;-37
2021/11/12 00:22:26;;;;;;;;;;;4.70;62.60;;;;;;4373643;32;19970;-39
2021/11/12 00:24:53;;;;;;;;;;;4.70;62.80;;;;;;4373301;32;20347;-38
2021/11/12 00:27:23;;;;;;;;;;;4.70;62.50;;;;;;4373300;32;20059;-39
2021/11/12 00:30:25;;;;;;;;;;;4.80;62.40;;;;;;4373323;32;20417;-39
2021/11/12 00:32:55;;;;;;;;;;;4.80;62.40;;;;;;4372529;32;20013;-39
2021/11/12 00:38:17;;;;;;;;;;;4.80;62.40;;;;;;4348716;32;20005;-41
2021/11/12 00:43:16;;;;;;;;;;;4.80;62.40;;;;;;4373298;32;20025;-38
2021/11/12 00:45:49;;;;;;;;;;;4.90;62.30;;;;;;4372813;32;19965;-38
2021/11/12 00:48:22;;;;;;;;;;;4.90;62.20;;;;;;4373000;32;20067;-39
2021/11/12 00:55:42;;;;;;;;;;;4.90;61.80;;;;;;4358848;32;19989;-39
2021/11/12 00:58:09;;;;;;;;;;;4.90;61.70;;;;;;4372883;32;20377;-40
2021/11/12 01:00:36;;;;;;;;;;;4.90;61.70;;;;;;4372837;32;19970;-40
2021/11/12 01:03:02;;;;;;;;;;;4.90;61.60;;;;;;4372754;32;19996;-38
2021/11/12 01:05:30;;;;;;;;;;;5.00;61.50;;;;;;4375369;32;20426;-39
2021/11/12 01:07:59;;;;;;;;;;;5.00;61.40;;;;;;4375839;32;19989;-40
2021/11/12 01:10:26;;;;;;;;;;;5.00;61.40;;;;;;4376106;32;19958;-39
2021/11/12 01:12:52;;;;;;;;;;;5.00;61.30;;;;;;4376019;32;20005;-38
2021/11/12 01:15:19;;;;;;;;;;;5.10;61.10;;;;;;4375500;32;19978;-39
2021/11/12 01:17:45;;;;;;;;;;;5.00;61.00;;;;;;4375749;32;19966;-39
2021/11/12 01:20:12;;;;;;;;;;;5.10;61.00;;;;;;4375940;32;21192;-37
2021/11/12 01:22:39;;;;;;;;;;;5.10;60.80;;;;;;4375443;32;20397;-38
2021/11/12 01:25:06;;;;;;;;;;;5.10;60.80;;;;;;4375625;32;20034;-38
2021/11/12 01:27:34;;;;;;;;;;;5.00;60.70;;;;;;4387249;32;19984;-39
2021/11/12 01:30:00;;;;;;;;;;;5.10;60.60;;;;;;4390828;32;19962;-39
2021/11/12 01:32:26;;;;;;;;;;;5.10;60.60;;;;;;4390425;32;20365;-39
2021/11/12 01:34:55;;;;;;;;;;;5.10;60.70;;;;;;4390781;32;19968;-39
2021/11/12 01:37:23;;;;;;;;;;;5.10;60.60;;;;;;4390608;32;20423;-38
2021/11/12 01:39:53;;;;;;;;;;;5.10;60.60;;;;;;4390653;32;19970;-40
2021/11/12 01:42:21;;;;;;;;;;;5.10;60.40;;;;;;4390747;32;20493;-37
2021/11/12 01:44:53;;;;;;;;;;;5.10;60.20;;;;;;4390792;32;19969;-39
2021/11/12 01:47:26;;;;;;;;;;;5.20;60.20;;;;;;4376005;32;19969;-38
2021/11/12 01:50:00;;;;;;;;;;;5.20;60.00;;;;;;4390112;32;20080;-40
2021/11/12 01:52:37;;;;;;;;;;;5.20;59.90;;;;;;4390313;32;19954;-38
2021/11/12 01:55:14;;;;;;;;;;;5.20;59.80;;;;;;4390462;32;20395;-38
2021/11/12 01:57:53;;;;;;;;;;;5.20;59.80;;;;;;4377513;32;20502;-39
2021/11/12 02:00:22;;;;;;;;;;;5.20;59.60;;;;;;4389881;32;20005;-39
2021/11/12 02:02:48;;;;;;;;;;;5.20;59.60;;;;;;4375440;32;19985;-39
2021/11/12 02:05:14;;;;;;;;;;;5.20;59.70;;;;;;4375472;32;19970;-39
2021/11/12 02:07:41;;;;;;;;;;;5.20;59.60;;;;;;4361916;32;19958;-39
2021/11/12 02:10:09;;;;;;;;;;;5.20;59.70;;;;;;4374998;32;20113;-40
2021/11/12 02:15:31;;;;;;;;;;;5.20;59.30;;;;;;4356923;32;19988;-39
2021/11/12 02:18:04;;;;;;;;;;;5.20;59.40;;;;;;4357577;32;19993;-40
2021/11/12 02:20:38;;;;;;;;;;;5.30;59.40;;;;;;4344734;32;19970;-39
2021/11/12 02:23:05;;;;;;;;;;;5.30;59.30;;;;;;4357862;32;20017;-40
2021/11/12 02:25:50;;;;;;;;;;;5.30;59.10;;;;;;4357403;32;20108;-39
2021/11/12 02:28:17;;;;;;;;;;;5.30;58.90;;;;;;4357261;32;19970;-39
2021/11/12 02:30:48;;;;;;;;;;;5.30;59.10;;;;;;4357655;32;19986;-40
2021/11/12 02:33:16;;;;;;;;;;;5.30;58.90;;;;;;4357143;32;20052;-40
2021/11/12 02:35:57;;;;;;;;;;;5.20;58.80;;;;;;4357426;32;19990;-38
2021/11/12 02:38:23;;;;;;;;;;;5.20;58.80;;;;;;4357646;32;20001;-39
2021/11/12 02:40:51;;;;;;;;;;;5.20;58.90;;;;;;4345218;32;19997;-39
2021/11/12 02:43:17;;;;;;;;;;;5.30;58.90;;;;;;4356802;32;19979;-40
2021/11/12 02:45:44;;;;;;;;;;;5.30;58.90;;;;;;4357351;32;19970;-40
2021/11/12 02:48:11;;;;;;;;;;;5.30;59.00;;;;;;4357281;32;19984;-40
2021/11/12 02:50:40;;;;;;;;;;;5.30;59.00;;;;;;4357906;32;19986;-40
2021/11/12 02:53:12;;;;;;;;;;;5.30;58.80;;;;;;4371691;32;19978;-40
2021/11/12 02:55:38;;;;;;;;;;;5.30;58.90;;;;;;4374499;32;20042;-38
2021/11/12 02:58:05;;;;;;;;;;;5.30;58.80;;;;;;4374374;32;20427;-40
2021/11/12 03:00:31;;;;;;;;;;;5.40;58.80;;;;;;4374406;32;19982;-41
2021/11/12 03:02:57;;;;;;;;;;;5.40;58.80;;;;;;4389294;32;19969;-40
2021/11/12 03:05:24;;;;;;;;;;;5.40;58.60;;;;;;4389637;32;20056;-41
2021/11/12 03:07:50;;;;;;;;;;;5.40;58.40;;;;;;4389234;32;20065;-41
2021/11/12 03:10:16;;;;;;;;;;;5.40;58.20;;;;;;4389113;32;19965;-40
2021/11/12 03:12:43;;;;;;;;;;;5.40;58.40;;;;;;4388898;32;19966;-41
2021/11/12 03:15:10;;;;;;;;;;;5.30;58.40;;;;;;4389345;32;19974;-38
2021/11/12 03:17:38;;;;;;;;;;;5.30;58.40;;;;;;4389629;32;19966;-40
2021/11/12 03:20:05;;;;;;;;;;;5.30;58.50;;;;;;4389032;32;19978;-42
2021/11/12 03:22:38;;;;;;;;;;;5.30;58.60;;;;;;4389277;32;19993;-41
2021/11/12 03:25:09;;;;;;;;;;;5.40;58.60;;;;;;4388957;32;20052;-41
2021/11/12 03:27:46;;;;;;;;;;;5.40;58.40;;;;;;4372059;32;19965;-43
2021/11/12 04:00:07;;;;;;;;;;;5.40;57.60;;;;;;4355687;32;19994;-42
2021/11/12 04:05:32;;;;;;;;;;;5.50;57.50;;;;;;4373478;32;20070;-42
2021/11/12 04:21:57;;;;;;;;;;;5.60;57.20;;;;;;4373032;32;19957;-41
2021/11/12 04:41:22;;;;;;;;;;;5.80;56.50;;;;;;4372645;32;20051;-38
2021/11/12 04:49:35;;;;;;;;;;;5.80;56.20;;;;;;4372743;32;19962;-42
2021/11/12 05:09:36;;;;;;;;;;;5.80;55.60;;;;;;4372620;32;20371;-41
2021/11/12 05:12:12;;;;;;;;;;;5.80;55.40;;;;;;4372350;32;20050;-44
2021/11/12 05:44:40;;;;;;;;;;;6.00;55.20;;;;;;4372081;32;19997;-44
2021/11/12 05:50:05;;;;;;;;;;;6.10;54.90;;;;;;4372343;32;19970;-43
2021/11/12 05:55:16;;;;;;;;;;;6.00;54.30;;;;;;4374978;32;19957;-43
2021/11/12 05:57:42;;;;;;;;;;;6.10;54.40;;;;;;4375197;32;19990;-42
2021/11/12 06:00:14;;;;;;;;;;;6.10;54.30;;;;;;4374509;32;19982;-41
2021/11/12 06:02:40;;;;;;;;;;;6.10;54.20;;;;;;4388669;32;19985;-43
2021/11/12 06:05:07;;;;;;;;;;;6.10;54.30;;;;;;4390265;32;19996;-39
2021/11/12 06:07:33;;;;;;;;;;;6.10;54.30;;;;;;4389656;32;19970;-42
2021/11/12 06:09:59;;;;;;;;;;;6.10;54.30;;;;;;4389733;32;20426;-42
2021/11/12 06:12:28;;;;;;;;;;;6.10;54.40;;;;;;4390084;32;19954;-43
2021/11/12 06:14:55;;;;;;;;;;;6.10;54.50;;;;;;4375625;32;19965;-42
2021/11/12 06:17:21;;;;;;;;;;;6.10;54.70;;;;;;4388952;32;20498;-42
2021/11/12 06:19:47;;;;;;;;;;;6.00;54.80;;;;;;4390021;32;19958;-42
2021/11/12 06:22:13;;;;;;;;;;;6.00;55.20;;;;;;4389610;32;20093;-41
2021/11/12 06:24:40;;;;;;;;;;;5.90;55.40;;;;;;4390165;32;19993;-42
2021/11/12 06:27:07;;;;;;;;;;;5.90;55.60;;;;;;4389256;32;19976;-43
2021/11/12 06:29:34;;;;;;;;;;;5.90;55.70;;;;;;4389327;32;20528;-43
2021/11/12 06:32:01;;;;;;;;;;;5.80;55.80;;;;;;4389733;32;19982;-41
2021/11/12 06:34:28;;;;;;;;;;;5.80;56.00;;;;;;4389354;32;19977;-41
2021/11/12 06:36:54;;;;;;;;;;;5.80;56.10;;;;;;4389425;32;19975;-41
2021/11/12 06:39:21;;;;;;;;;;;5.80;56.30;;;;;;4390171;32;20668;-40
2021/11/12 06:49:38;;;;;;;;;;;5.90;56.40;;;;;;4389308;32;19961;-41
2021/11/12 06:52:05;;;;;;;;;;;5.90;56.10;;;;;;4388980;32;20567;-41
2021/11/12 06:54:32;;;;;;;;;;;6.00;56.30;;;;;;4389479;32;19970;-42
2021/11/12 06:56:58;;;;;;;;;;;6.00;56.10;;;;;;4389199;32;19981;-41
2021/11/12 06:59:25;;;;;;;;;;;6.10;55.80;;;;;;4389194;32;19977;-41
2021/11/12 07:01:53;;;;;;;;;;;6.10;55.60;;;;;;4380123;32;19962;-42
2021/11/12 07:04:19;;;;;;;;;;;6.20;55.50;;;;;;4374565;32;20362;-42
2021/11/12 07:06:45;;;;;;;;;;;6.20;54.60;;;;;;4373750;32;19969;-42
2021/11/12 07:09:11;;;;;;;;;;;6.30;54.50;;;;;;4374042;32;19998;-41
2021/11/12 07:11:38;;;;;;;;;;;6.30;53.70;;;;;;4374009;32;20363;-41
2021/11/12 07:14:04;;;;;;;;;;;6.40;53.60;;;;;;4373484;32;19961;-40
2021/11/12 07:16:31;;;;;;;;;;;6.40;52.90;;;;;;4373733;32;19970;-40
2021/11/12 07:18:58;;;;;;;;;;;6.50;52.30;;;;;;4373475;32;20516;-41
2021/11/12 07:21:24;;;;;;;;;;;6.60;52.10;;;;;;4373578;32;19999;-41
2021/11/12 07:23:51;;;;;;;;;;;6.60;51.80;;;;;;4374167;32;19986;-41
2021/11/12 07:26:17;;;;;;;;;;;6.80;52.00;;;;;;4340626;33;20079;-41
2021/11/12 07:28:46;;;;;;;;;;;6.80;52.20;;;;;;4341528;33;20028;-42
2021/11/12 07:31:14;;;;;;;;;;;7.00;52.50;;;;;;4341106;33;20439;-40
2021/11/12 07:33:40;;;;;;;;;;;7.10;52.50;;;;;;4329248;33;20478;-41
2021/11/12 07:36:14;;;;;;;;;;;7.30;52.10;;;;;;4341569;33;20038;-41
2021/11/12 07:38:50;;;;;;;;;;;7.30;51.90;;;;;;4341863;33;19986;-42
2021/11/12 07:48:58;;;;;;;;;;;7.60;50.90;;;;;;4341342;33;20462;-41
2021/11/12 07:51:24;;;;;;;;;;;7.70;50.90;;;;;;4341341;33;19983;-41
2021/11/12 07:53:51;;;;;;;;;;;7.70;51.00;;;;;;4341384;33;19979;-39
2021/11/12 07:56:17;;;;;;;;;;;7.80;50.80;;;;;;4341500;33;20467;-41
2021/11/12 07:58:44;;;;;;;;;;;7.80;50.80;;;;;;4341176;33;19963;-42
2021/11/12 08:01:10;;;;;;;;;;;7.90;50.40;;;;;;4349485;32;20480;-42
2021/11/12 08:03:36;;;;;;;;;;;7.90;50.10;;;;;;4378483;32;20461;-41
2021/11/12 08:06:05;;;;;;;;;;;8.00;50.30;;;;;;4387885;32;20381;-42
2021/11/12 08:08:35;;;;;;;;;;;8.00;50.10;;;;;;4388564;32;20406;-42
2021/11/12 08:11:09;;;;;;;;;;;8.00;49.90;;;;;;4387833;32;20462;-42
2021/11/12 08:13:49;;;;;;;;;;;8.10;49.60;;;;;;4373893;32;19970;-41
2021/11/12 08:16:28;;;;;;;;;;;8.10;49.80;;;;;;4387952;32;20000;-42
2021/11/12 08:24:37;;;;;;;;;;;8.10;48.70;;;;;;4387819;32;19962;-44
2021/11/12 08:29:53;;;;;;;;;;;7.90;48.40;;;;;;4388002;32;20045;-42
2021/11/12 08:32:45;;;;;;;;;;;7.90;48.70;;;;;;4387757;32;20072;-40
2021/11/12 08:35:38;;;;;;;;;;;7.90;48.90;;;;;;4387744;32;20374;-42
2021/11/12 08:40:46;;;;;;;;;;;8.00;49.50;;;;;;4387692;32;20405;-41
2021/11/12 08:45:45;;;;;;;;;;;8.20;49.30;;;;;;4388082;32;20037;-43
2021/11/12 08:48:21;;;;;;;;;;;8.20;49.10;;;;;;4388362;32;19997;-41
2021/11/12 08:50:47;;;;;;;;;;;8.30;49.00;;;;;;4387529;32;19954;-41
2021/11/12 08:53:15;;;;;;;;;;;8.40;48.60;;;;;;4373922;32;19980;-41
2021/11/12 08:55:42;;;;;;;;;;;8.40;48.30;;;;;;4387955;32;19977;-41
2021/11/12 08:58:10;;;;;;;;;;;8.40;47.60;;;;;;4387637;32;19977;-41
2021/11/12 09:00:38;;;;;;;;;;;8.40;47.70;;;;;;4387111;32;19969;-42
2021/11/12 09:03:04;;;;;;;;;;;8.40;47.60;;;;;;4370579;32;19973;-42
2021/11/12 09:05:31;;;;;;;;;;;8.40;47.00;;;;;;4372785;32;20023;-38
2021/11/12 09:07:57;;;;;;;;;;;8.40;47.10;;;;;;4372746;32;20370;-40
2021/11/12 09:10:25;;;;;;;;;;;8.30;47.30;;;;;;4372744;32;19981;-41
2021/11/12 09:13:18;;;;;;;;;;;8.30;47.00;;;;;;4371390;32;20071;-40
2021/11/12 09:15:53;;;;;;;;;;;8.20;47.00;;;;;;4372654;32;19974;-41
2021/11/12 09:18:22;;;;;;;;;;;8.10;46.60;;;;;;4372467;32;20009;-41
2021/11/12 09:20:50;;;;;;;;;;;8.10;46.50;;;;;;4372397;32;20002;-42
2021/11/12 09:23:17;;;;;;;;;;;8.10;46.00;;;;;;4354636;32;19979;-40
2021/11/12 09:25:43;;;;;;;;;;;8.00;45.70;;;;;;4356140;32;20047;-41
2021/11/12 09:28:11;;;;;;;;;;;8.10;45.40;;;;;;4357859;32;19990;-41
2021/11/12 09:30:38;;;;;;;;;;;8.10;45.40;;;;;;4357992;32;19993;-40
2021/11/12 09:33:05;;;;;;;;;;;8.00;45.30;;;;;;4357940;32;19972;-41
2021/11/12 09:35:31;;;;;;;;;;;8.00;45.30;;;;;;4346099;32;20399;-39
2021/11/12 09:37:57;;;;;;;;;;;8.00;45.60;;;;;;4357692;32;20005;-37
2021/11/12 09:40:24;;;;;;;;;;;8.00;45.90;;;;;;4357742;32;19970;-42
2021/11/12 09:42:51;;;;;;;;;;;8.10;45.50;;;;;;4313155;33;20007;-41
2021/11/12 09:45:17;;;;;;;;;;;8.10;45.60;;;;;;4313498;33;19968;-42
2021/11/12 09:47:43;;;;;;;;;;;8.20;45.80;;;;;;4313824;33;19975;-41
2021/11/12 09:50:12;;;;;;;;;;;8.30;45.70;;;;;;4313600;33;20389;-41
2021/11/12 09:52:41;;;;;;;;;;;8.30;45.70;;;;;;4313089;33;20487;-41
2021/11/12 09:55:07;;;;;;;;;;;8.40;46.00;;;;;;4338128;33;19986;-42
2021/11/12 09:57:34;;;;;;;;;;;8.40;46.00;;;;;;4342390;33;19975;-40
2021/11/12 10:00:06;;;;;;;;;;;8.40;45.60;;;;;;4342473;33;19982;-41
2021/11/12 10:02:40;;;;;;;;;;;8.40;45.70;;;;;;4330396;33;20414;-41
2021/11/12 10:05:10;;;;;;;;;;;8.40;45.80;;;;;;4327488;33;20046;-41
2021/11/12 10:07:38;;;;;;;;;;;8.40;45.90;;;;;;4327767;33;19975;-41
2021/11/12 10:10:08;;;;;;;;;;;8.40;45.70;;;;;;4327549;33;20051;-41
2021/11/12 10:12:45;;;;;;;;;;;8.30;45.70;;;;;;4327393;33;19978;-39
2021/11/12 10:15:20;;;;;;;;;;;8.30;45.80;;;;;;4374945;32;20005;-39
2021/11/12 10:17:48;;;;;;;;;;;8.20;45.80;;;;;;4374907;32;19989;-41
2021/11/12 10:20:17;;;;;;;;;;;8.20;46.00;;;;;;4374264;32;20074;-41
2021/11/12 10:22:43;;;;;;;;;;;8.20;46.00;;;;;;4374277;32;19976;-41
2021/11/12 10:25:10;;;;;;;;;;;8.10;46.00;;;;;;4348091;32;20086;-40
2021/11/12 10:27:37;;;;;;;;;;;8.10;46.00;;;;;;4373924;32;19958;-41
2021/11/12 10:30:14;;;;;;;;;;;8.00;46.10;;;;;;4374864;32;20041;-42
2021/11/12 10:32:41;;;;;;;;;;;8.00;46.20;;;;;;4374088;32;19977;-42
2021/11/12 10:35:09;;;;;;;;;;;8.00;46.10;;;;;;4374344;32;19984;-42
2021/11/12 10:37:39;;;;;;;;;;;7.90;46.00;;;;;;4373452;32;19958;-42
2021/11/12 10:40:09;;;;;;;;;;;7.90;46.20;;;;;;4360877;32;20484;-41
2021/11/12 10:42:38;;;;;;;;;;;7.90;46.20;;;;;;4374348;32;19966;-40
2021/11/12 10:45:12;;;;;;;;;;;7.90;46.30;;;;;;4373923;32;20499;-38
2021/11/12 10:48:02;;;;;;;;;;;7.90;46.50;;;;;;4374209;32;19963;-41
2021/11/12 10:50:30;;;;;;;;;;;7.90;46.60;;;;;;4373906;32;19994;-43
2021/11/12 10:53:09;;;;;;;;;;;7.90;46.50;;;;;;4374371;32;20000;-42
2021/11/12 10:55:36;;;;;;;;;;;7.90;46.40;;;;;;4374679;32;19970;-39
2021/11/12 10:58:07;;;;;;;;;;;7.90;46.40;;;;;;4374611;32;19958;-42
2021/11/12 11:00:39;;;;;;;;;;;7.90;46.40;;;;;;4374523;32;20413;-43
2021/11/12 11:03:10;;;;;;;;;;;7.90;46.40;;;;;;4374559;32;19969;-42
2021/11/12 11:05:40;;;;;;;;;;;7.90;46.60;;;;;;4372618;32;20359;-37
2021/11/12 11:08:08;;;;;;;;;;;8.00;47.40;;;;;;4374296;32;19969;-38
2021/11/12 11:10:36;;;;;;;;;;;8.00;46.60;;;;;;4374293;32;19970;-42
2021/11/12 11:13:11;;;;;;;;;;;7.90;46.60;;;;;;4374042;32;19966;-43
2021/11/12 11:15:41;;;;;;;;;;;7.90;46.60;;;;;;4374470;32;19973;-42
2021/11/12 11:18:44;;;;;;;;;;;7.80;46.60;;;;;;4373992;32;19966;-41
2021/11/12 11:23:59;;;;;;;;;;;7.80;47.00;;;;;;4326862;33;19967;-43
2021/11/12 11:26:30;;;;;;;;;;;7.80;47.10;;;;;;4326895;33;20048;-42
2021/11/12 11:29:00;;;;;;;;;;;7.80;47.10;;;;;;4326547;33;20058;-41
2021/11/12 11:31:28;;;;;;;;;;;7.80;47.20;;;;;;4327145;33;20401;-42
2021/11/12 11:33:54;;;;;;;;;;;7.70;47.30;;;;;;4314813;33;19982;-42
2021/11/12 11:36:22;;;;;;;;;;;7.60;47.30;;;;;;4314449;33;20458;-43
2021/11/12 11:38:50;;;;;;;;;;;7.60;47.60;;;;;;4326539;33;19975;-43
2021/11/12 11:41:18;;;;;;;;;;;7.50;47.70;;;;;;4326584;33;19959;-42
2021/11/12 11:43:45;;;;;;;;;;;7.50;47.90;;;;;;4326986;33;19982;-43
2021/11/12 11:46:24;;;;;;;;;;;7.50;48.00;;;;;;4326595;33;19971;-42
2021/11/12 11:49:08;;;;;;;;;;;7.40;48.20;;;;;;4326084;33;20405;-42
2021/11/12 11:51:37;;;;;;;;;;;7.40;48.10;;;;;;4326483;33;20078;-43
2021/11/12 11:54:22;;;;;;;;;;;7.30;48.30;;;;;;4334860;32;19965;-44
2021/11/12 11:56:58;;;;;;;;;;;7.30;48.60;;;;;;4373661;32;20387;-43
2021/11/12 11:59:28;;;;;;;;;;;7.30;48.50;;;;;;4373558;32;20066;-42
2021/11/12 12:01:59;;;;;;;;;;;7.20;48.80;;;;;;4373122;32;19986;-42
2021/11/12 12:04:51;;;;;;;;;;;7.20;48.80;;;;;;4373424;32;19981;-42
2021/11/12 12:07:20;;;;;;;;;;;7.20;48.80;;;;;;4358879;32;19985;-42
2021/11/12 12:10:18;;;;;;;;;;;7.20;48.80;;;;;;4373262;32;19969;-41
2021/11/12 12:12:57;;;;;;;;;;;7.20;49.00;;;;;;4372678;32;20419;-43
2021/11/12 12:15:23;;;;;;;;;;;7.10;49.20;;;;;;4372711;32;20042;-43
2021/11/12 12:18:09;;;;;;;;;;;7.10;49.10;;;;;;4373293;32;20005;-43
2021/11/12 12:31:07;;;;;;;;;;;6.80;49.40;;;;;;4311147;33;20030;-43
2021/11/12 12:43:26;;;;;;;;;;;6.70;50.00;;;;;;4310755;33;19998;-43
2021/11/12 13:25:51;;;;;;;;;;;6.10;51.60;;;;;;4372340;32;20010;-42
2021/11/12 13:28:19;;;;;;;;;;;6.10;51.70;;;;;;4372408;32;20126;-42
2021/11/12 13:30:52;;;;;;;;;;;6.10;52.40;;;;;;4372344;32;19966;-42
2021/11/12 13:33:36;;;;;;;;;;;6.10;51.80;;;;;;4372384;32;19955;-43
2021/11/12 13:36:08;;;;;;;;;;;6.00;51.90;;;;;;4358555;32;20040;-43
2021/11/12 13:38:40;;;;;;;;;;;6.10;52.00;;;;;;4372664;32;20082;-42
2021/11/12 13:41:10;;;;;;;;;;;6.10;52.00;;;;;;4372217;32;20490;-41
2021/11/12 13:43:38;;;;;;;;;;;6.10;52.00;;;;;;4339551;33;19996;-43
2021/11/12 13:46:04;;;;;;;;;;;6.10;52.00;;;;;;4339901;33;19977;-42
2021/11/12 13:48:48;;;;;;;;;;;6.10;52.00;;;;;;4339483;33;19980;-43
2021/11/12 13:51:17;;;;;;;;;;;6.10;51.90;;;;;;4339627;33;19962;-42
2021/11/12 13:53:46;;;;;;;;;;;6.10;52.00;;;;;;4328206;33;19966;-43
2021/11/12 13:56:13;;;;;;;;;;;6.10;52.00;;;;;;4316093;33;19993;-40
2021/11/12 13:58:42;;;;;;;;;;;6.10;52.20;;;;;;4340059;33;19974;-42
2021/11/12 14:01:17;;;;;;;;;;;6.10;52.00;;;;;;4344038;32;19970;-46
2021/11/12 14:03:43;;;;;;;;;;;6.10;52.00;;;;;;4355174;32;20008;-42
2021/11/12 14:06:11;;;;;;;;;;;6.00;52.00;;;;;;4354431;32;20063;-44
2021/11/12 14:08:48;;;;;;;;;;;6.00;52.00;;;;;;4354722;32;20025;-43
2021/11/12 14:11:29;;;;;;;;;;;6.00;52.00;;;;;;4355103;32;20503;-43
2021/11/12 14:13:58;;;;;;;;;;;6.00;52.00;;;;;;4364141;32;19961;-42
2021/11/12 14:16:29;;;;;;;;;;;6.00;52.20;;;;;;4390086;32;19969;-44
2021/11/12 14:19:35;;;;;;;;;;;6.00;52.20;;;;;;4389679;32;20139;-43
2021/11/12 14:21:59;;;;;;;;;;;6.00;52.40;;;;;;4388613;32;19988;-43
2021/11/12 14:24:39;;;;;;;;;;;6.00;52.30;;;;;;4390001;32;19954;-44
2021/11/12 14:30:16;;;;;;;;;;;6.00;52.30;;;;;;4376851;32;20006;-44
2021/11/12 14:32:52;;;;;;;;;;;6.00;52.60;;;;;;4389561;32;19981;-42
2021/11/12 14:46:51;;;;;;;;;;;6.00;52.60;;;;;;4389427;32;19977;-44
2021/11/12 14:49:22;;;;;;;;;;;6.00;52.70;;;;;;4389512;32;19969;-43
2021/11/12 14:52:11;;;;;;;;;;;6.00;52.70;;;;;;4389415;32;20036;-44
2021/11/12 14:54:52;;;;;;;;;;;6.00;52.70;;;;;;4389565;32;20027;-44
2021/11/12 14:57:40;;;;;;;;;;;6.00;52.70;;;;;;4389263;32;19984;-45
2021/11/12 15:00:13;;;;;;;;;;;6.00;52.90;;;;;;4388957;32;20026;-44
2021/11/12 15:02:41;;;;;;;;;;;6.00;53.00;;;;;;4375810;32;20020;-43
2021/11/12 15:05:08;;;;;;;;;;;6.00;53.10;;;;;;4374383;32;20009;-44
2021/11/12 15:07:49;;;;;;;;;;;6.00;53.10;;;;;;4374164;32;19962;-45
2021/11/12 15:10:18;;;;;;;;;;;6.00;53.10;;;;;;4374298;32;19993;-44
2021/11/12 15:12:50;;;;;;;;;;;6.00;53.30;;;;;;4374142;32;19962;-44
2021/11/12 15:15:16;;;;;;;;;;;6.00;53.50;;;;;;4374122;32;20468;-45
2021/11/12 15:17:43;;;;;;;;;;;6.00;53.70;;;;;;4374046;32;20002;-44
2021/11/12 15:20:09;;;;;;;;;;;5.90;53.90;;;;;;4373912;32;20043;-43
2021/11/12 15:22:50;;;;;;;;;;;5.90;53.90;;;;;;4373101;32;20378;-46
2021/11/12 15:25:35;;;;;;;;;;;5.90;53.90;;;;;;4373911;32;19962;-43
2021/11/12 15:28:35;;;;;;;;;;;6.00;53.90;;;;;;4387420;32;20074;-44
2021/11/12 15:31:04;;;;;;;;;;;6.00;54.10;;;;;;4388364;32;20391;-44
2021/11/12 15:33:31;;;;;;;;;;;6.00;53.90;;;;;;4388372;32;19977;-45
2021/11/12 15:36:00;;;;;;;;;;;6.00;53.90;;;;;;4374643;32;19966;-45
2021/11/12 15:38:48;;;;;;;;;;;6.00;54.00;;;;;;4388466;32;20507;-44
2021/11/12 15:44:30;;;;;;;;;;;6.00;54.20;;;;;;4388412;32;20040;-43
2021/11/12 15:46:40;;;;;;;;;;;6.00;54.50;;;;;;4383948;32;19985;-43
2021/11/12 15:49:07;;;;;;;;;;;5.90;54.90;;;;;;4388809;32;20482;-43
2021/11/12 15:51:38;;;;;;;;;;;5.80;55.60;;;;;;4374576;32;20399;-44
2021/11/12 16:07:05;;;;;;;;;;;5.50;58.40;;;;;;4359821;32;19978;-39
2021/11/12 16:09:43;;;;;;;;;;;5.50;58.60;;;;;;4373203;32;19978;-40
2021/11/12 16:12:22;;;;;;;;;;;5.40;59.00;;;;;;4372853;32;19967;-42
2021/11/12 16:14:57;;;;;;;;;;;5.40;59.20;;;;;;4359563;32;19970;-42
2021/11/12 16:17:42;;;;;;;;;;;5.40;59.20;;;;;;4373174;32;19978;-42
2021/11/12 16:25:35;;;;;;;;;;;5.40;60.00;;;;;;4372888;32;20000;-41
2021/11/12 16:28:04;;;;;;;;;;;5.30;60.20;;;;;;4373005;32;20047;-42
2021/11/12 16:30:35;;;;;;;;;;;5.30;60.30;;;;;;4372837;32;20067;-40
2021/11/12 16:33:03;;;;;;;;;;;5.30;60.50;;;;;;4372955;32;19993;-43
2021/11/12 16:35:32;;;;;;;;;;;5.30;60.50;;;;;;4359034;32;19965;-42
2021/11/12 16:38:21;;;;;;;;;;;5.30;60.60;;;;;;4372912;32;19970;-42
2021/11/12 16:40:54;;;;;;;;;;;5.30;60.70;;;;;;4361782;32;19962;-40
2021/11/12 16:53:39;;;;;;;;;;;5.20;61.30;;;;;;4372620;32;20401;-42
2021/11/12 16:56:35;;;;;;;;;;;5.30;61.40;;;;;;4372620;32;19970;-42
2021/11/12 17:04:28;;;;;;;;;;;5.30;61.70;;;;;;4372307;32;19966;-44
2021/11/12 17:09:33;;;;;;;;;;;5.20;62.00;;;;;;4372863;32;19985;-42
2021/11/12 17:14:50;;;;;;;;;;;5.10;62.20;;;;;;4373095;32;20197;-42
2021/11/12 17:47:15;;;;;;;;;;;5.20;63.30;;;;;;4356504;32;19966;-43
2021/11/12 17:50:28;;;;;;;;;;;5.30;63.40;;;;;;4357468;32;20482;-44
2021/11/12 18:03:23;;;;;;;;;;;5.40;63.30;;;;;;4342441;33;20030;-47
2021/11/12 21:47:10;;;;;;;;;;;6.20;64.80;;;;;;4375944;32;19965;-41
2021/11/12 21:49:36;;;;;;;;;;;6.20;64.70;;;;;;4361470;32;20458;-41
2021/11/12 21:52:03;;;;;;;;;;;6.30;64.50;;;;;;4374886;32;19997;-41
2021/11/12 21:54:29;;;;;;;;;;;6.30;64.50;;;;;;4375259;32;20400;-42
2021/11/12 21:57:01;;;;;;;;;;;6.30;64.40;;;;;;4375354;32;20436;-41
2021/11/12 21:59:28;;;;;;;;;;;6.30;64.40;;;;;;4375173;32;20014;-42
2021/11/12 22:01:55;;;;;;;;;;;6.40;64.20;;;;;;4375170;32;20471;-38
2021/11/12 22:04:21;;;;;;;;;;;6.40;64.10;;;;;;4373853;32;20045;-43
2021/11/12 22:06:48;;;;;;;;;;;6.40;64.00;;;;;;4375333;32;19970;-42
2021/11/12 22:09:14;;;;;;;;;;;6.40;63.80;;;;;;4375145;32;19974;-40
2021/11/12 22:11:40;;;;;;;;;;;6.50;64.30;;;;;;4374990;32;20207;-41
2021/11/12 22:14:06;;;;;;;;;;;6.50;63.70;;;;;;4373722;32;19977;-39
2021/11/12 22:16:34;;;;;;;;;;;6.50;63.60;;;;;;4375249;32;20208;-42
2021/11/12 22:19:01;;;;;;;;;;;6.60;63.40;;;;;;4374960;32;20426;-41
2021/11/12 22:21:27;;;;;;;;;;;6.60;63.30;;;;;;4375093;32;19974;-41
2021/11/12 22:23:56;;;;;;;;;;;6.60;63.20;;;;;;4374785;32;19982;-41
2021/11/12 22:26:22;;;;;;;;;;;6.60;63.10;;;;;;4378073;32;19989;-42
2021/11/12 22:28:49;;;;;;;;;;;6.60;62.90;;;;;;4389890;32;20583;-41
2021/11/12 22:31:16;;;;;;;;;;;6.60;62.80;;;;;;4389857;32;19989;-39
2021/11/12 22:33:42;;;;;;;;;;;6.60;62.80;;;;;;4389900;32;19966;-41
2021/11/12 22:36:09;;;;;;;;;;;6.60;62.80;;;;;;4376045;32;19966;-42
2021/11/12 22:38:35;;;;;;;;;;;6.60;62.70;;;;;;4389702;32;20013;-42
2021/11/12 22:41:02;;;;;;;;;;;6.60;62.80;;;;;;4389994;32;20366;-40
2021/11/12 22:43:28;;;;;;;;;;;6.60;62.80;;;;;;4389851;32;19977;-41
2021/11/12 22:45:54;;;;;;;;;;;6.60;62.90;;;;;;4389636;32;20010;-46
2021/11/12 22:48:20;;;;;;;;;;;6.60;62.90;;;;;;4389970;32;20065;-44
2021/11/12 22:50:47;;;;;;;;;;;6.60;62.90;;;;;;4375834;32;19978;-43
2021/11/12 22:53:13;;;;;;;;;;;6.60;62.90;;;;;;4390564;32;19954;-48
2021/11/12 22:55:39;;;;;;;;;;;6.60;62.90;;;;;;4389763;32;20050;-48
2021/11/12 22:58:05;;;;;;;;;;;6.60;62.90;;;;;;4389498;32;20033;-49
2021/11/12 23:00:31;;;;;;;;;;;6.60;62.90;;;;;;4388932;32;19962;-46
2021/11/12 23:02:58;;;;;;;;;;;6.60;62.90;;;;;;4374276;32;19950;-50
2021/11/12 23:05:24;;;;;;;;;;;6.60;62.90;;;;;;4374211;32;19981;-49
2021/11/12 23:07:51;;;;;;;;;;;6.60;63.00;;;;;;4374451;32;20065;-48
2021/11/12 23:10:17;;;;;;;;;;;6.60;63.10;;;;;;4374196;32;20041;-41
2021/11/12 23:12:43;;;;;;;;;;;6.60;63.10;;;;;;4374024;32;20450;-48
2021/11/12 23:15:12;;;;;;;;;;;6.60;63.10;;;;;;4374150;32;20014;-47
2021/11/12 23:17:39;;;;;;;;;;;6.60;63.20;;;;;;4374470;32;19978;-49
2021/11/12 23:20:06;;;;;;;;;;;6.60;63.20;;;;;;4374218;32;20067;-47
2021/11/12 23:22:32;;;;;;;;;;;6.60;63.20;;;;;;4360509;32;19985;-48
2021/11/12 23:24:58;;;;;;;;;;;6.60;63.30;;;;;;4374120;32;19969;-47
2021/11/12 23:27:25;;;;;;;;;;;6.60;63.20;;;;;;4374018;32;19998;-45
2021/11/12 23:29:51;;;;;;;;;;;6.60;63.20;;;;;;4373779;32;20486;-44
2021/11/12 23:32:17;;;;;;;;;;;6.70;63.30;;;;;;4374409;32;20094;-47
2021/11/12 23:34:44;;;;;;;;;;;6.70;63.30;;;;;;4374042;32;20438;-47
2021/11/12 23:37:10;;;;;;;;;;;6.70;63.40;;;;;;4373828;32;19961;-42
2021/11/12 23:39:36;;;;;;;;;;;6.70;63.40;;;;;;4374194;32;20491;-45
2021/11/12 23:42:02;;;;;;;;;;;6.70;63.40;;;;;;4373605;32;20031;-44
2021/11/12 23:44:29;;;;;;;;;;;6.70;63.30;;;;;;4373420;32;19961;-45
2021/11/12 23:46:56;;;;;;;;;;;6.70;63.30;;;;;;4373971;32;19974;-43
2021/11/12 23:49:22;;;;;;;;;;;6.70;63.40;;;;;;4373496;32;19982;-48
2021/11/12 23:51:49;;;;;;;;;;;6.80;63.50;;;;;;4360212;32;19973;-47
2021/11/12 23:54:15;;;;;;;;;;;6.80;63.50;;;;;;4359691;32;19986;-50
2021/11/12 23:56:41;;;;;;;;;;;6.70;63.40;;;;;;4373578;32;20083;-50
2021/11/12 23:59:08;;;;;;;;;;;6.70;64.50;;;;;;4373848;32;20444;-49
